Time;durP1;ratioP1;P1;durP2;ratioP2;P2;SDS_P1;SDS_P2;PMS_P1;PMS_P2;Temp;Humidity;BMP_temperature;BMP_pressure;BME280_temperature;BME280_humidity;BME280_pressure;Samples;Min_cycle;Max_cycle;Signal;HPM_P1;HPM_P2
2022/03/16 00:00:27;;;;;;;6.87;4.93;;;12.20;47.70;;;;;;5076096;28;20196;-51
2022/03/16 00:02:53;;;;;;;17.50;5.07;;;12.20;47.50;;;;;;5076161;28;20528;-51
2022/03/16 00:05:19;;;;;;;11.00;5.93;;;12.20;47.50;;;;;;5076035;28;20933;-51
2022/03/16 00:07:45;;;;;;;8.93;5.13;;;12.20;47.50;;;;;;5075017;28;20965;-51
2022/03/16 00:10:11;;;;;;;11.65;6.05;;;12.20;47.50;;;;;;5075954;28;20699;-51
2022/03/16 00:12:39;;;;;;;9.57;5.10;;;12.20;47.50;;;;;;5076037;28;20628;-51
2022/03/16 00:15:05;;;;;;;6.53;5.18;;;12.10;47.60;;;;;;5075737;28;20212;-51
2022/03/16 00:17:32;;;;;;;10.20;5.80;;;12.10;47.80;;;;;;5075951;28;20169;-50
2022/03/16 00:19:57;;;;;;;11.80;5.30;;;12.10;47.70;;;;;;5075685;28;20246;-51
2022/03/16 00:22:23;;;;;;;7.83;5.60;;;12.10;47.60;;;;;;5074464;28;20172;-51
2022/03/16 00:24:49;;;;;;;10.03;4.83;;;12.10;47.70;;;;;;5075733;28;20639;-51
2022/03/16 00:27:15;;;;;;;8.13;5.63;;;12.10;47.70;;;;;;5074949;28;20161;-51
2022/03/16 00:29:40;;;;;;;8.10;5.47;;;12.00;47.70;;;;;;5075593;28;20532;-51
2022/03/16 00:32:06;;;;;;;10.63;6.10;;;12.10;47.50;;;;;;5075797;28;20169;-51
2022/03/16 00:34:32;;;;;;;10.60;6.03;;;12.00;47.40;;;;;;5075536;28;20164;-51
2022/03/16 00:36:58;;;;;;;9.87;6.27;;;12.00;47.50;;;;;;5075499;28;20591;-51
2022/03/16 00:39:24;;;;;;;13.02;7.10;;;12.00;47.40;;;;;;5075424;28;20195;-51
2022/03/16 00:41:50;;;;;;;8.37;5.07;;;11.90;47.80;;;;;;5075324;28;20165;-51
2022/03/16 00:44:16;;;;;;;8.20;5.33;;;11.90;47.70;;;;;;5075261;28;20438;-51
2022/03/16 00:46:42;;;;;;;8.93;5.55;;;11.90;47.30;;;;;;5075235;28;20157;-51
2022/03/16 00:49:08;;;;;;;8.23;5.07;;;11.90;47.20;;;;;;5073950;28;20662;-51
2022/03/16 00:51:34;;;;;;;7.50;5.37;;;11.80;47.70;;;;;;5074169;28;20175;-52
2022/03/16 00:54:00;;;;;;;18.93;6.20;;;11.80;47.30;;;;;;5075087;28;20169;-51
2022/03/16 00:56:26;;;;;;;10.65;5.22;;;11.70;47.20;;;;;;5075077;28;20239;-51
2022/03/16 00:58:52;;;;;;;6.73;5.50;;;11.70;47.50;;;;;;5073670;28;20592;-51
2022/03/16 01:01:17;;;;;;;4.47;3.93;;;11.60;47.40;;;;;;5075091;28;20255;-51
2022/03/16 01:03:43;;;;;;;8.27;4.30;;;11.60;47.40;;;;;;5075057;28;20514;-51
2022/03/16 01:06:15;;;;;;;11.13;6.40;;;11.60;47.50;;;;;;5074845;28;20165;-51
2022/03/16 01:08:43;;;;;;;5.43;4.13;;;11.60;47.50;;;;;;5075177;28;20169;-51
2022/03/16 01:11:10;;;;;;;8.82;4.53;;;11.60;47.70;;;;;;5074768;28;20678;-51
2022/03/16 01:13:36;;;;;;;6.97;4.25;;;11.60;47.80;;;;;;5074453;28;20160;-51
2022/03/16 01:16:01;;;;;;;5.70;4.03;;;11.60;47.80;;;;;;5073436;28;20175;-51
2022/03/16 01:18:27;;;;;;;6.97;3.47;;;11.50;47.80;;;;;;5074608;28;20195;-51
2022/03/16 01:20:53;;;;;;;10.63;4.87;;;11.50;48.00;;;;;;5074497;28;20200;-51
2022/03/16 01:23:18;;;;;;;11.60;6.27;;;11.50;48.30;;;;;;5074647;28;20164;-51
2022/03/16 01:25:44;;;;;;;7.73;4.83;;;11.50;48.70;;;;;;5074563;28;20179;-51
2022/03/16 01:28:10;;;;;;;8.80;4.70;;;11.50;48.50;;;;;;5074409;28;20164;-51
2022/03/16 01:30:35;;;;;;;6.27;3.97;;;11.50;48.90;;;;;;5074365;28;20165;-51
2022/03/16 01:33:01;;;;;;;9.07;5.60;;;11.50;48.90;;;;;;5074359;28;20168;-51
2022/03/16 01:35:27;;;;;;;7.27;4.03;;;11.50;48.90;;;;;;5074365;28;20156;-51
2022/03/16 01:37:53;;;;;;;6.80;4.53;;;11.50;48.90;;;;;;5074223;28;20694;-51
2022/03/16 01:40:18;;;;;;;9.13;5.70;;;11.50;49.50;;;;;;5074256;28;20632;-51
2022/03/16 01:42:44;;;;;;;6.73;4.27;;;11.50;49.40;;;;;;5074123;28;20243;-51
2022/03/16 01:45:10;;;;;;;11.07;6.10;;;11.50;49.00;;;;;;5074138;28;20165;-51
2022/03/16 01:47:35;;;;;;;7.20;5.33;;;11.50;49.20;;;;;;5074160;28;20161;-51
2022/03/16 01:50:01;;;;;;;9.03;5.20;;;11.50;49.30;;;;;;5074062;28;20161;-51
2022/03/16 01:52:29;;;;;;;8.87;4.73;;;11.50;49.00;;;;;;5074211;28;20179;-51
2022/03/16 01:54:56;;;;;;;8.13;6.13;;;11.50;49.10;;;;;;5074194;28;20306;-51
2022/03/16 01:57:23;;;;;;;6.25;4.53;;;11.50;49.10;;;;;;5074035;28;20169;-51
2022/03/16 01:59:49;;;;;;;11.85;5.85;;;11.50;48.90;;;;;;5073845;28;20198;-51
2022/03/16 02:02:15;;;;;;;8.27;3.72;;;11.50;49.00;;;;;;5072511;28;20272;-51
2022/03/16 02:04:43;;;;;;;8.48;5.63;;;11.50;48.80;;;;;;5073932;28;20164;-51
2022/03/16 02:07:09;;;;;;;7.53;5.68;;;11.50;48.60;;;;;;5073776;28;20176;-51
2022/03/16 02:09:35;;;;;;;7.20;5.23;;;11.50;48.60;;;;;;5073870;28;20175;-51
2022/03/16 02:12:01;;;;;;;7.50;4.97;;;11.60;48.40;;;;;;5073731;28;20502;-51
2022/03/16 02:14:27;;;;;;;6.57;4.07;;;11.60;48.30;;;;;;5073451;28;20515;-51
2022/03/16 02:16:56;;;;;;;10.52;4.75;;;11.60;48.30;;;;;;5073898;28;20411;-51
2022/03/16 02:19:22;;;;;;;8.30;5.85;;;11.60;48.40;;;;;;5073822;28;20213;-51
2022/03/16 02:22:00;;;;;;;10.48;5.32;;;11.60;48.50;;;;;;5073570;28;20179;-51
2022/03/16 02:24:29;;;;;;;11.10;5.53;;;11.60;48.50;;;;;;5073584;28;20167;-51
2022/03/16 02:26:55;;;;;;;10.77;6.78;;;11.50;48.30;;;;;;5073533;28;20173;-51
2022/03/16 02:29:21;;;;;;;11.85;6.72;;;11.50;48.40;;;;;;5073619;28;20561;-51
2022/03/16 02:31:47;;;;;;;9.77;5.20;;;11.50;48.30;;;;;;5073555;28;20294;-51
2022/03/16 02:34:13;;;;;;;7.30;5.57;;;11.50;48.50;;;;;;5073457;28;20636;-51
2022/03/16 02:36:39;;;;;;;11.83;4.47;;;11.50;48.60;;;;;;5073241;28;20210;-51
2022/03/16 02:39:04;;;;;;;9.17;5.77;;;11.60;48.40;;;;;;5072511;28;20434;-51
2022/03/16 02:41:30;;;;;;;13.93;6.67;;;11.60;48.30;;;;;;5073499;28;20410;-51
2022/03/16 02:43:56;;;;;;;8.30;5.60;;;11.60;48.40;;;;;;5073550;28;20680;-51
2022/03/16 02:46:22;;;;;;;7.90;5.13;;;11.60;48.50;;;;;;5073352;28;20952;-51
2022/03/16 02:48:48;;;;;;;11.63;6.97;;;11.50;48.70;;;;;;5072024;28;20168;-51
2022/03/16 02:51:14;;;;;;;9.88;5.38;;;11.50;48.80;;;;;;5077287;28;20666;-51
2022/03/16 02:53:40;;;;;;;9.63;5.50;;;11.50;49.10;;;;;;5077543;28;20249;-51
2022/03/16 02:56:07;;;;;;;6.30;4.65;;;11.40;48.90;;;;;;5076096;28;20421;-51
2022/03/16 02:58:33;;;;;;;8.52;4.88;;;11.40;48.90;;;;;;5077546;28;20248;-51
2022/03/16 03:00:59;;;;;;;8.23;4.78;;;11.40;49.00;;;;;;5077293;28;20224;-51
2022/03/16 03:03:25;;;;;;;8.67;5.60;;;11.30;49.40;;;;;;5075917;28;20207;-51
2022/03/16 03:05:52;;;;;;;8.73;5.70;;;11.40;49.20;;;;;;5077318;28;20160;-51
2022/03/16 03:08:18;;;;;;;7.53;4.95;;;11.30;49.00;;;;;;5077069;28;20606;-51
2022/03/16 03:10:44;;;;;;;14.60;7.17;;;11.30;49.30;;;;;;5077071;28;20200;-51
2022/03/16 03:13:11;;;;;;;7.73;5.13;;;11.30;49.30;;;;;;5077204;28;20419;-51
2022/03/16 03:15:37;;;;;;;7.57;4.40;;;11.30;49.10;;;;;;5076799;28;20462;-51
2022/03/16 03:18:03;;;;;;;9.02;4.68;;;11.30;49.20;;;;;;5076975;28;20157;-51
2022/03/16 03:20:29;;;;;;;5.27;4.77;;;11.30;49.10;;;;;;5076739;28;20203;-51
2022/03/16 03:22:55;;;;;;;6.30;4.67;;;11.30;48.90;;;;;;5077032;28;20175;-51
2022/03/16 03:25:21;;;;;;;7.47;4.30;;;11.30;48.90;;;;;;5075494;28;20176;-51
2022/03/16 03:27:46;;;;;;;6.17;4.60;;;11.30;49.20;;;;;;5076709;28;20171;-51
2022/03/16 03:30:12;;;;;;;5.23;4.50;;;11.30;48.90;;;;;;5076739;28;20188;-51
2022/03/16 03:32:38;;;;;;;16.40;4.60;;;11.30;49.60;;;;;;5075383;28;20182;-51
2022/03/16 03:35:04;;;;;;;9.07;4.23;;;11.30;49.00;;;;;;5075323;28;20180;-51
2022/03/16 03:37:30;;;;;;;7.75;5.20;;;11.30;48.90;;;;;;5076599;28;20405;-51
2022/03/16 03:39:57;;;;;;;14.83;6.33;;;11.30;49.10;;;;;;5075180;28;20192;-51
2022/03/16 03:42:23;;;;;;;11.07;5.63;;;11.30;49.10;;;;;;5076477;28;20460;-51
2022/03/16 03:44:49;;;;;;;9.65;5.00;;;11.20;49.00;;;;;;5076698;28;20586;-51
2022/03/16 03:47:15;;;;;;;8.10;5.50;;;11.20;49.10;;;;;;5076439;28;20183;-51
2022/03/16 03:49:42;;;;;;;10.40;5.88;;;11.20;49.00;;;;;;5076323;28;20913;-51
2022/03/16 03:52:10;;;;;;;18.85;4.28;;;11.20;48.90;;;;;;5076582;28;20267;-51
2022/03/16 03:54:36;;;;;;;9.93;5.18;;;11.20;49.60;;;;;;5074986;28;20227;-51
2022/03/16 03:57:03;;;;;;;9.77;4.25;;;11.10;49.60;;;;;;5076334;28;20255;-51
2022/03/16 03:59:29;;;;;;;8.88;3.58;;;11.10;50.10;;;;;;5074811;28;20222;-51
2022/03/16 04:01:55;;;;;;;4.10;3.70;;;11.00;49.70;;;;;;5074873;28;20676;-51
2022/03/16 04:04:20;;;;;;;6.57;4.90;;;11.00;50.10;;;;;;5076158;28;20442;-51
2022/03/16 04:06:46;;;;;;;11.40;5.33;;;11.00;49.80;;;;;;5076164;28;20161;-51
2022/03/16 04:09:12;;;;;;;7.67;5.10;;;11.00;49.70;;;;;;5076005;28;20574;-51
2022/03/16 04:11:38;;;;;;;12.13;6.30;;;11.00;49.40;;;;;;5075990;28;20168;-51
2022/03/16 04:14:04;;;;;;;6.83;4.83;;;11.00;49.70;;;;;;5075793;28;20228;-51
2022/03/16 04:16:30;;;;;;;5.72;5.18;;;11.10;49.60;;;;;;5075911;28;20425;-51
2022/03/16 04:18:55;;;;;;;7.90;4.63;;;11.10;49.70;;;;;;5075816;28;20243;-51
2022/03/16 04:21:22;;;;;;;8.03;4.23;;;11.10;49.30;;;;;;5075770;28;20473;-51
2022/03/16 04:23:49;;;;;;;10.05;5.88;;;11.10;49.70;;;;;;5074496;28;20164;-51
2022/03/16 04:26:15;;;;;;;12.00;5.30;;;11.20;49.60;;;;;;5075737;28;20199;-51
2022/03/16 04:28:41;;;;;;;7.22;5.15;;;11.20;49.50;;;;;;5075601;28;20173;-51
2022/03/16 04:31:10;;;;;;;8.18;5.53;;;11.10;49.70;;;;;;5075551;28;20179;-51
2022/03/16 04:33:37;;;;;;;7.00;4.50;;;11.10;49.60;;;;;;5075549;28;20190;-51
2022/03/16 04:36:03;;;;;;;5.55;4.05;;;11.10;49.60;;;;;;5075521;28;20559;-51
2022/03/16 04:38:29;;;;;;;7.90;5.15;;;11.10;49.50;;;;;;5075424;28;20165;-51
2022/03/16 04:40:55;;;;;;;6.80;3.83;;;11.10;49.30;;;;;;5075457;28;20283;-51
2022/03/16 04:43:37;;;;;;;7.33;3.97;;;11.10;49.50;;;;;;5074804;28;20489;-51
2022/03/16 04:46:04;;;;;;;10.10;5.40;;;11.10;49.40;;;;;;5077342;28;20200;-51
2022/03/16 04:48:30;;;;;;;8.90;4.57;;;11.10;49.50;;;;;;5075403;28;20185;-51
2022/03/16 04:50:56;;;;;;;5.78;4.00;;;11.20;49.30;;;;;;5075188;28;20620;-51
2022/03/16 04:53:21;;;;;;;13.17;5.57;;;11.20;49.20;;;;;;5075156;28;20184;-51
2022/03/16 04:55:47;;;;;;;14.90;4.60;;;11.20;49.30;;;;;;5075170;28;20193;-51
2022/03/16 04:58:13;;;;;;;6.47;4.27;;;11.20;49.40;;;;;;5075065;28;20707;-51
2022/03/16 05:00:39;;;;;;;5.40;4.50;;;11.20;49.30;;;;;;5075013;28;20197;-51
2022/03/16 05:03:05;;;;;;;7.37;4.40;;;11.10;49.70;;;;;;5074951;28;20253;-51
2022/03/16 05:05:31;;;;;;;6.75;3.67;;;11.10;49.40;;;;;;5074835;28;20187;-51
2022/03/16 05:07:57;;;;;;;6.43;4.85;;;11.10;49.60;;;;;;5074821;28;20646;-51
2022/03/16 05:10:23;;;;;;;9.73;5.03;;;11.10;49.70;;;;;;5074976;28;20195;-51
2022/03/16 05:12:49;;;;;;;11.77;5.17;;;11.10;49.80;;;;;;5073265;28;20592;-51
2022/03/16 05:15:29;;;;;;;12.63;5.28;;;11.10;50.40;;;;;;5074507;28;20355;-51
2022/03/16 05:17:55;;;;;;;11.38;4.65;;;11.00;50.20;;;;;;5073287;28;20176;-51
2022/03/16 05:20:21;;;;;;;7.47;4.60;;;11.00;50.00;;;;;;5074588;28;20564;-51
2022/03/16 05:22:51;;;;;;;17.83;5.75;;;11.00;50.00;;;;;;5072568;28;20179;-51
2022/03/16 05:25:23;;;;;;;9.18;5.28;;;11.10;50.20;;;;;;5054420;28;20185;-51
2022/03/16 05:27:49;;;;;;;8.23;4.90;;;11.10;49.90;;;;;;5054584;28;20167;-51
2022/03/16 05:30:15;;;;;;;5.22;3.88;;;11.10;49.70;;;;;;5054340;28;20177;-51
2022/03/16 05:32:42;;;;;;;10.40;5.15;;;11.10;49.70;;;;;;5054447;28;20234;-51
2022/03/16 05:35:13;;;;;;;11.32;5.10;;;11.10;49.60;;;;;;5054292;28;20222;-51
2022/03/16 05:37:40;;;;;;;9.40;4.47;;;11.10;49.50;;;;;;5054321;28;20586;-50
2022/03/16 05:40:07;;;;;;;6.72;5.10;;;11.20;49.70;;;;;;5054092;28;20284;-51
2022/03/16 05:42:33;;;;;;;5.60;2.95;;;11.20;49.50;;;;;;5054177;28;20174;-51
2022/03/16 05:44:59;;;;;;;11.63;6.07;;;11.20;49.40;;;;;;5054146;28;20220;-51
2022/03/16 05:47:25;;;;;;;7.17;5.97;;;11.30;49.30;;;;;;5053870;28;20587;-51
2022/03/16 05:49:52;;;;;;;10.52;5.20;;;11.30;49.30;;;;;;5071268;28;20682;-51
2022/03/16 05:52:21;;;;;;;6.60;5.43;;;11.30;49.30;;;;;;5073918;28;20644;-51
2022/03/16 05:54:48;;;;;;;8.15;5.05;;;11.30;49.30;;;;;;5074134;28;20182;-51
2022/03/16 05:57:15;;;;;;;8.10;4.55;;;11.30;49.20;;;;;;5073817;28;20256;-51
2022/03/16 05:59:44;;;;;;;13.30;5.65;;;11.30;49.40;;;;;;5073930;28;20250;-51
2022/03/16 06:02:11;;;;;;;11.65;5.80;;;11.30;49.30;;;;;;5072432;28;20263;-51
2022/03/16 06:04:38;;;;;;;8.32;4.38;;;11.30;49.30;;;;;;5073751;28;20161;-51
2022/03/16 06:07:05;;;;;;;11.10;4.95;;;11.40;49.20;;;;;;5073689;28;20513;-51
2022/03/16 06:09:31;;;;;;;8.65;4.85;;;11.40;49.20;;;;;;5073655;28;20289;-51
2022/03/16 06:11:57;;;;;;;13.43;5.10;;;11.50;49.40;;;;;;5073618;28;20700;-51
2022/03/16 06:14:23;;;;;;;12.63;6.15;;;11.50;49.10;;;;;;5073406;28;20485;-51
2022/03/16 06:16:49;;;;;;;10.43;5.90;;;11.50;49.10;;;;;;5073689;28;20632;-51
2022/03/16 06:19:14;;;;;;;9.03;5.40;;;11.50;49.30;;;;;;5073634;28;20179;-51
2022/03/16 06:21:40;;;;;;;7.83;5.27;;;11.60;48.90;;;;;;5073762;28;20173;-51
2022/03/16 06:24:06;;;;;;;8.20;4.40;;;11.60;48.90;;;;;;5072875;28;20497;-51
2022/03/16 06:26:32;;;;;;;9.00;5.88;;;10.40;48.20;;;;;;5073455;28;20165;-51
2022/03/16 06:28:58;;;;;;;6.57;4.80;;;11.60;48.60;;;;;;5073385;28;20169;-51
2022/03/16 06:31:24;;;;;;;10.50;6.47;;;11.70;49.70;;;;;;5073424;28;20222;-51
2022/03/16 06:33:49;;;;;;;9.00;4.90;;;11.70;48.70;;;;;;5073431;28;20172;-51
2022/03/16 06:36:15;;;;;;;9.20;5.47;;;11.80;48.70;;;;;;5073304;28;20694;-51
2022/03/16 06:38:41;;;;;;;9.20;5.47;;;11.90;48.60;;;;;;5073428;28;20190;-51
2022/03/16 06:41:07;;;;;;;12.27;7.30;;;12.00;48.60;;;;;;5073299;28;20286;-51
2022/03/16 06:43:32;;;;;;;7.10;4.13;;;12.00;48.50;;;;;;5073196;28;20162;-51
2022/03/16 06:45:58;;;;;;;5.90;4.70;;;12.10;48.20;;;;;;5073101;28;20517;-51
2022/03/16 06:48:24;;;;;;;8.07;6.33;;;12.20;47.90;;;;;;5071948;28;20267;-51
2022/03/16 06:50:50;;;;;;;11.85;5.82;;;12.20;48.10;;;;;;5073115;28;20165;-51
2022/03/16 06:53:16;;;;;;;18.13;6.00;;;12.20;48.10;;;;;;5073118;28;20168;-51
2022/03/16 06:55:42;;;;;;;12.30;6.00;;;12.20;47.80;;;;;;5073490;28;20213;-51
2022/03/16 06:58:09;;;;;;;8.90;5.83;;;12.30;47.90;;;;;;5073075;28;20529;-51
2022/03/16 07:00:35;;;;;;;10.40;5.18;;;12.30;47.70;;;;;;5071819;28;20470;-51
2022/03/16 07:03:02;;;;;;;12.57;6.47;;;12.30;47.60;;;;;;5073154;28;20172;-50
2022/03/16 07:05:31;;;;;;;9.68;6.47;;;12.40;47.80;;;;;;5073081;28;20430;-51
2022/03/16 07:08:02;;;;;;;9.45;5.38;;;12.40;48.00;;;;;;5073095;28;20529;-50
2022/03/16 07:10:28;;;;;;;8.52;4.80;;;12.50;47.70;;;;;;5072992;28;20226;-50
2022/03/16 07:12:55;;;;;;;11.15;5.75;;;12.60;47.90;;;;;;5073269;28;20187;-51
2022/03/16 07:15:21;;;;;;;9.20;6.35;;;12.60;47.70;;;;;;5072791;28;20723;-51
2022/03/16 07:17:46;;;;;;;10.57;6.25;;;12.70;47.70;;;;;;5072921;28;20176;-51
2022/03/16 07:20:12;;;;;;;12.50;6.40;;;12.80;47.50;;;;;;5072798;28;20193;-50
2022/03/16 07:22:38;;;;;;;8.27;5.73;;;12.90;47.60;;;;;;5071571;28;20442;-51
2022/03/16 07:25:09;;;;;;;11.68;5.78;;;13.00;47.10;;;;;;5072923;28;20457;-51
2022/03/16 07:27:36;;;;;;;9.02;5.13;;;13.10;47.20;;;;;;5073167;28;20169;-51
2022/03/16 07:30:04;;;;;;;8.15;5.28;;;13.20;47.00;;;;;;5073112;28;20176;-50
2022/03/16 07:32:29;;;;;;;10.98;5.70;;;13.30;47.10;;;;;;5072861;28;20175;-50
2022/03/16 07:34:55;;;;;;;10.20;6.53;;;13.50;46.90;;;;;;5072807;28;20247;-51
2022/03/16 07:37:22;;;;;;;22.43;6.80;;;13.60;46.60;;;;;;5076388;28;20570;-51
2022/03/16 07:39:48;;;;;;;7.75;5.10;;;13.70;46.30;;;;;;5076492;28;20241;-51
2022/03/16 07:42:14;;;;;;;9.83;6.83;;;13.80;46.00;;;;;;5076407;28;20169;-51
2022/03/16 07:44:40;;;;;;;12.02;7.45;;;13.90;46.10;;;;;;5076457;28;20422;-51
2022/03/16 07:47:07;;;;;;;9.00;6.00;;;14.00;45.70;;;;;;5076331;28;20173;-51
2022/03/16 07:49:34;;;;;;;10.23;7.00;;;14.20;45.80;;;;;;5075624;28;20506;-50
2022/03/16 07:52:00;;;;;;;9.63;6.45;;;14.20;45.40;;;;;;5076407;28;20175;-50
2022/03/16 07:54:26;;;;;;;11.97;6.80;;;14.20;44.80;;;;;;5074913;28;20164;-51
2022/03/16 07:56:53;;;;;;;9.70;6.18;;;14.30;45.00;;;;;;5076211;28;20165;-51
2022/03/16 07:59:19;;;;;;;9.98;7.40;;;14.20;44.80;;;;;;5076242;28;20657;-51
2022/03/16 08:01:45;;;;;;;10.50;5.83;;;14.20;45.00;;;;;;5076117;28;20211;-51
2022/03/16 08:04:11;;;;;;;10.17;6.03;;;14.20;44.80;;;;;;5076107;28;20540;-51
2022/03/16 08:06:37;;;;;;;11.43;6.70;;;14.20;44.40;;;;;;5074693;28;20176;-50
2022/03/16 08:09:02;;;;;;;9.63;6.53;;;14.20;44.40;;;;;;5075998;28;20165;-51
2022/03/16 08:11:28;;;;;;;12.60;6.23;;;14.10;44.70;;;;;;5076011;28;20161;-50
2022/03/16 08:13:54;;;;;;;7.70;5.80;;;14.20;44.60;;;;;;5075696;28;20738;-51
2022/03/16 08:16:19;;;;;;;11.60;5.47;;;14.30;44.80;;;;;;5074604;28;20267;-53
2022/03/16 08:18:45;;;;;;;9.20;6.67;;;14.40;44.80;;;;;;5075809;28;20164;-51
2022/03/16 08:21:11;;;;;;;11.03;6.33;;;14.60;45.00;;;;;;5074434;28;20591;-51
2022/03/16 08:23:38;;;;;;;12.15;7.28;;;14.80;45.00;;;;;;5075718;28;20654;-51
2022/03/16 08:26:04;;;;;;;12.13;5.90;;;14.90;44.60;;;;;;5075920;28;20184;-51
2022/03/16 08:28:29;;;;;;;10.37;5.53;;;15.00;44.10;;;;;;5075731;28;20169;-51
2022/03/16 08:30:55;;;;;;;15.40;6.33;;;15.10;43.70;;;;;;5075702;28;20156;-51
2022/03/16 08:33:23;;;;;;;11.43;7.77;;;15.20;41.50;;;;;;5075156;28;20260;-51
2022/03/16 08:35:49;;;;;;;10.73;7.25;;;15.10;41.80;;;;;;5075475;28;20415;-51
2022/03/16 08:38:15;;;;;;;9.85;5.95;;;15.00;42.60;;;;;;5075459;28;20205;-51
2022/03/16 08:40:41;;;;;;;15.52;6.97;;;15.00;43.00;;;;;;5073969;28;20196;-51
2022/03/16 08:43:08;;;;;;;11.50;5.75;;;15.00;42.90;;;;;;5075343;28;20169;-51
2022/03/16 08:45:34;;;;;;;10.85;7.00;;;15.00;42.90;;;;;;5075341;28;20528;-51
2022/03/16 08:47:59;;;;;;;11.97;7.57;;;15.20;43.50;;;;;;5074539;28;20161;-50
2022/03/16 08:50:25;;;;;;;12.83;5.87;;;15.40;42.90;;;;;;5075232;28;20407;-51
2022/03/16 08:52:51;;;;;;;14.40;8.10;;;15.70;43.80;;;;;;5075326;28;20415;-51
2022/03/16 08:55:17;;;;;;;13.60;8.17;;;16.00;43.80;;;;;;5057226;28;20226;-50
2022/03/16 08:57:43;;;;;;;15.60;7.93;;;16.10;43.10;;;;;;5075065;28;20169;-51
2022/03/16 09:00:14;;;;;;;16.05;8.48;;;16.20;42.80;;;;;;5074878;28;20207;-51
2022/03/16 09:02:40;;;;;;;15.43;8.60;;;16.30;41.30;;;;;;5075181;28;20214;-51
2022/03/16 09:05:07;;;;;;;13.07;9.02;;;16.30;40.20;;;;;;5075166;28;20178;-51
2022/03/16 09:07:32;;;;;;;12.88;8.07;;;16.30;41.20;;;;;;5073735;28;20573;-51
2022/03/16 09:09:58;;;;;;;14.97;7.63;;;16.30;41.20;;;;;;5074808;28;20196;-51
2022/03/16 09:12:24;;;;;;;12.40;7.83;;;16.40;41.20;;;;;;5074842;28;20176;-51
2022/03/16 09:14:49;;;;;;;13.53;7.40;;;16.50;41.60;;;;;;5074459;28;20219;-51
2022/03/16 09:17:17;;;;;;;10.43;8.00;;;16.70;40.60;;;;;;5074725;28;20165;-51
2022/03/16 09:19:43;;;;;;;15.43;8.40;;;16.80;38.00;;;;;;5074566;28;20580;-51
2022/03/16 09:22:09;;;;;;;14.10;7.95;;;16.80;39.30;;;;;;5073252;28;20177;-51
2022/03/16 09:24:38;;;;;;;12.90;8.10;;;16.90;39.60;;;;;;5074451;28;20172;-51
2022/03/16 09:27:05;;;;;;;13.05;7.80;;;16.90;38.10;;;;;;5074478;28;20651;-51
2022/03/16 09:29:31;;;;;;;12.82;6.55;;;17.10;39.20;;;;;;5073888;28;20267;-51
2022/03/16 09:31:57;;;;;;;13.50;8.40;;;17.20;37.80;;;;;;5074499;28;20235;-50
2022/03/16 09:34:23;;;;;;;11.40;6.90;;;17.30;37.60;;;;;;5074344;28;20525;-50
2022/03/16 09:36:49;;;;;;;11.88;7.70;;;17.30;38.30;;;;;;5074223;28;20173;-50
2022/03/16 09:39:14;;;;;;;16.47;7.57;;;17.50;38.10;;;;;;5074080;28;20183;-50
2022/03/16 09:41:40;;;;;;;12.53;8.20;;;17.70;38.40;;;;;;5074139;28;20729;-50
2022/03/16 09:44:06;;;;;;;12.73;8.00;;;17.90;39.00;;;;;;5074150;28;20199;-50
2022/03/16 09:46:34;;;;;;;11.83;7.17;;;18.20;37.90;;;;;;5074075;28;20177;-50
2022/03/16 09:49:01;;;;;;;11.07;6.68;;;18.30;36.10;;;;;;5074330;28;20176;-50
2022/03/16 09:51:27;;;;;;;15.32;7.20;;;18.30;35.10;;;;;;5074021;28;20161;-50
2022/03/16 09:53:53;;;;;;;14.63;7.60;;;18.40;36.30;;;;;;5073969;28;20285;-50
2022/03/16 09:56:19;;;;;;;12.75;8.52;;;18.60;36.80;;;;;;5073940;28;20202;-50
2022/03/16 09:58:46;;;;;;;13.90;8.27;;;18.80;37.20;;;;;;5073902;28;20160;-50
2022/03/16 10:01:12;;;;;;;9.45;6.93;;;19.00;36.60;;;;;;5073737;28;20189;-50
2022/03/16 10:03:38;;;;;;;12.90;5.97;;;19.20;35.90;;;;;;5072517;28;20528;-51
2022/03/16 10:06:16;;;;;;;12.63;7.13;;;19.30;35.80;;;;;;5072495;28;20202;-50
2022/03/16 10:08:42;;;;;;;16.00;8.85;;;19.40;35.10;;;;;;5074072;28;20391;-50
2022/03/16 10:14:07;;;;;;;13.90;7.55;;;19.50;35.10;;;;;;5073801;28;20214;-51
2022/03/16 10:17:43;;;;;;;12.25;8.35;;;19.40;35.00;;;;;;5073879;28;20180;-51
2022/03/16 10:19:24;;;;;;;17.25;8.13;;;19.30;34.60;;;;;;5073337;28;20184;-51
2022/03/16 10:22:09;;;;;;;10.63;6.70;;;19.20;35.00;;;;;;5073505;28;20181;-51
2022/03/16 10:24:41;;;;;;;14.43;9.23;;;19.10;35.00;;;;;;5073797;28;20160;-50
2022/03/16 10:27:06;;;;;;;14.00;8.68;;;18.90;35.20;;;;;;5073563;28;20160;-50
2022/03/16 10:29:32;;;;;;;10.20;6.90;;;18.90;35.30;;;;;;5072188;28;20170;-50
2022/03/16 10:32:05;;;;;;;12.90;7.87;;;18.70;34.70;;;;;;5073538;28;20164;-50
2022/03/16 10:34:32;;;;;;;11.70;8.02;;;18.50;35.10;;;;;;5073531;28;20249;-50
2022/03/16 10:37:09;;;;;;;15.18;9.77;;;18.50;35.10;;;;;;5073445;28;20532;-51
2022/03/16 10:39:37;;;;;;;12.48;8.95;;;18.70;35.90;;;;;;5073458;28;20245;-50
2022/03/16 10:47:58;;;;;;;12.63;7.55;;;19.40;32.70;;;;;;5073412;28;20673;-50
2022/03/16 10:50:24;;;;;;;12.32;7.45;;;19.40;34.10;;;;;;5073399;28;20171;-50
2022/03/16 10:52:50;;;;;;;13.63;6.37;;;19.30;33.60;;;;;;5073323;28;20549;-50
2022/03/16 10:55:20;;;;;;;13.10;8.02;;;19.40;32.70;;;;;;5073243;28;20167;-51
2022/03/16 10:57:50;;;;;;;10.18;7.20;;;19.60;34.10;;;;;;5073259;28;20644;-51
2022/03/16 11:00:19;;;;;;;11.57;7.05;;;19.80;34.70;;;;;;5073037;28;20219;-51
2022/03/16 11:02:45;;;;;;;12.50;7.78;;;20.20;34.50;;;;;;5073120;28;20713;-50
2022/03/16 11:05:11;;;;;;;11.00;7.57;;;20.60;32.90;;;;;;5073125;28;20189;-50
2022/03/16 11:07:39;;;;;;;12.20;6.63;;;20.70;32.30;;;;;;5073090;28;20215;-50
2022/03/16 11:10:06;;;;;;;9.77;5.43;;;20.90;27.80;;;;;;5073199;28;20435;-50
2022/03/16 11:15:21;;;;;;;12.07;7.80;;;21.10;31.50;;;;;;5075511;28;20219;-51
2022/03/16 11:17:47;;;;;;;9.95;5.93;;;21.30;31.50;;;;;;5076933;28;20168;-51
2022/03/16 11:20:13;;;;;;;6.97;4.97;;;21.30;30.80;;;;;;5076853;28;20196;-51
2022/03/16 11:25:59;;;;;;;11.05;6.45;;;21.10;30.50;;;;;;5076962;28;20529;-51
2022/03/16 11:29:10;;;;;;;10.98;5.72;;;21.20;31.40;;;;;;5076781;28;20153;-50
2022/03/16 11:31:35;;;;;;;10.00;6.90;;;21.50;30.90;;;;;;5077036;28;20177;-51
2022/03/16 11:34:08;;;;;;;8.50;6.50;;;21.70;31.40;;;;;;5076706;28;20207;-51
2022/03/16 11:36:41;;;;;;;17.90;6.40;;;21.80;30.40;;;;;;5076637;28;20540;-51
2022/03/16 11:39:21;;;;;;;10.93;6.35;;;22.00;30.30;;;;;;5076572;28;20209;-51
2022/03/16 11:41:52;;;;;;;11.30;6.10;;;22.10;30.50;;;;;;5076621;28;20188;-51
2022/03/16 11:44:25;;;;;;;9.43;5.30;;;22.30;30.00;;;;;;5076486;28;20173;-51
2022/03/16 11:46:54;;;;;;;7.78;4.95;;;22.30;27.10;;;;;;5076419;28;20366;-51
2022/03/16 11:49:30;;;;;;;7.97;5.87;;;22.30;25.70;;;;;;5076395;28;20204;-51
2022/03/16 11:52:00;;;;;;;7.55;5.20;;;22.20;27.80;;;;;;5076316;28;20417;-51
2022/03/16 11:54:48;;;;;;;15.10;5.63;;;22.10;28.50;;;;;;5076295;28;20231;-51
2022/03/16 11:57:31;;;;;;;8.15;4.88;;;22.00;29.40;;;;;;5076447;28;20427;-51
2022/03/16 12:00:11;;;;;;;7.45;5.97;;;21.90;28.40;;;;;;5076159;28;20199;-51
2022/03/16 12:02:37;;;;;;;9.27;5.03;;;21.80;29.20;;;;;;5074916;28;20505;-51
2022/03/16 12:05:04;;;;;;;7.93;4.93;;;22.00;28.60;;;;;;5076154;28;20172;-51
2022/03/16 12:07:36;;;;;;;10.97;5.77;;;22.10;29.10;;;;;;5058195;28;20169;-51
2022/03/16 12:10:06;;;;;;;12.00;5.23;;;22.40;28.30;;;;;;5076114;28;20388;-51
2022/03/16 12:12:57;;;;;;;8.30;4.60;;;22.30;28.30;;;;;;5075996;28;20413;-51
2022/03/16 12:15:32;;;;;;;7.27;4.40;;;22.20;27.90;;;;;;5075910;28;20970;-51
2022/03/16 12:17:58;;;;;;;8.37;5.77;;;22.00;28.40;;;;;;5075787;28;20383;-51
2022/03/16 12:20:24;;;;;;;6.77;4.90;;;21.70;28.30;;;;;;5075662;28;20994;-51
2022/03/16 12:22:56;;;;;;;6.10;3.97;;;21.60;28.60;;;;;;5074682;28;20506;-51
2022/03/16 12:25:27;;;;;;;8.10;4.50;;;21.40;28.50;;;;;;5075753;28;20207;-51
2022/03/16 12:30:51;;;;;;;7.07;4.22;;;21.10;28.70;;;;;;5075931;28;20168;-51
2022/03/16 12:33:24;;;;;;;8.10;4.95;;;21.10;28.80;;;;;;5075514;28;20552;-51
2022/03/16 12:35:53;;;;;;;5.70;3.65;;;21.00;29.00;;;;;;5075656;28;20601;-51
2022/03/16 12:38:21;;;;;;;4.95;3.55;;;21.10;29.30;;;;;;5075468;28;20161;-51
2022/03/16 12:43:37;;;;;;;6.50;4.10;;;21.60;27.20;;;;;;5074365;28;20180;-51
2022/03/16 12:46:16;;;;;;;5.75;4.07;;;21.80;26.60;;;;;;5075212;28;20502;-51
2022/03/16 12:48:47;;;;;;;6.03;3.88;;;21.80;26.20;;;;;;5075319;28;20156;-51
2022/03/16 12:51:18;;;;;;;6.30;3.85;;;21.70;26.00;;;;;;5075314;28;20159;-51
2022/03/16 12:53:46;;;;;;;8.17;4.60;;;21.40;24.50;;;;;;5075485;28;20192;-51
2022/03/16 12:56:16;;;;;;;10.27;8.48;;;21.00;24.30;;;;;;5075149;28;20914;-51
2022/03/16 12:58:42;;;;;;;6.43;4.88;;;20.50;25.70;;;;;;5075209;28;20169;-51
2022/03/16 13:01:16;;;;;;;7.05;5.30;;;20.20;24.30;;;;;;5075137;28;20253;-51
2022/03/16 13:03:42;;;;;;;6.63;4.07;;;20.10;25.20;;;;;;5075115;28;20214;-51